createdAt,value
2022-12-22T00:04:48.508Z,55.92
2022-12-22T00:15:32.537Z,58.67
2022-12-22T00:20:52.441Z,55.75
2022-12-22T00:26:14.474Z,58.13
2022-12-22T00:31:34.577Z,58.13
2022-12-22T00:36:55.716Z,62.38
2022-12-22T00:42:15.887Z,60.30
2022-12-22T00:47:42.332Z,64.20
2022-12-22T00:53:02.212Z,66.60
2022-12-22T00:58:25.049Z,58.85
2022-12-22T01:03:45.105Z,58.55
2022-12-22T01:09:05.547Z,60.53
2022-12-22T01:14:32.210Z,64.80
2022-12-22T01:19:52.186Z,59.47
2022-12-22T01:25:12.211Z,57.60
2022-12-22T01:30:32.534Z,60.17
2022-12-22T01:35:53.658Z,56.53
2022-12-22T01:41:15.039Z,55.70
2022-12-22T01:46:45.680Z,49.97
2022-12-22T01:52:05.543Z,54.08
2022-12-22T01:57:25.531Z,52.30
2022-12-22T02:02:46.563Z,54.45
2022-12-22T02:08:09.593Z,49.10
2022-12-22T02:13:39.313Z,53.15
2022-12-22T02:19:03.266Z,56.17
2022-12-22T02:24:33.057Z,56.28
2022-12-22T02:29:59.612Z,57.80
2022-12-22T02:35:19.661Z,57.08
2022-12-22T02:40:41.752Z,57.70
2022-12-22T02:46:12.456Z,59.65
2022-12-22T02:51:35.794Z,60.17
2022-12-22T02:56:56.368Z,65.65
2022-12-22T03:02:18.439Z,63.08
2022-12-22T03:07:38.515Z,63.33
2022-12-22T03:12:58.441Z,60.13
2022-12-22T03:18:25.868Z,60.30
2022-12-22T03:23:45.921Z,57.17
2022-12-22T03:28:47.374Z,57.97
2022-12-22T03:33:48.841Z,55.05
2022-12-22T03:38:50.247Z,50.80
2022-12-22T03:44:11.491Z,52.20
2022-12-22T03:49:13.152Z,51.92
2022-12-22T03:54:16.401Z,45.03
2022-12-22T03:59:17.980Z,39.53
2022-12-22T04:04:20.650Z,44.65
2022-12-22T04:09:22.752Z,50.10
2022-12-22T04:14:28.092Z,44.97
2022-12-22T04:19:34.998Z,49.22
2022-12-22T04:24:36.616Z,47.92
2022-12-22T04:29:38.052Z,49.00
2022-12-22T04:34:39.485Z,45.78
2022-12-22T04:39:40.872Z,42.03
2022-12-22T04:44:42.413Z,40.95
2022-12-22T04:49:43.904Z,46.05
2022-12-22T04:54:45.404Z,44.80
2022-12-22T04:59:46.944Z,45.80
2022-12-22T05:04:48.494Z,47.33
2022-12-22T05:09:50.149Z,44.30
2022-12-22T05:14:51.611Z,51.22
2022-12-22T05:19:53.073Z,46.15
2022-12-22T05:24:54.503Z,54.53
2022-12-22T05:29:56.176Z,54.95
2022-12-22T05:34:57.585Z,52.03
2022-12-22T05:39:59.055Z,55.00
2022-12-22T05:45:00.465Z,54.92
2022-12-22T05:50:01.937Z,47.60
2022-12-22T05:55:04.101Z,49.88
2022-12-22T06:00:11.106Z,42.85
2022-12-22T06:05:13.653Z,44.13
2022-12-22T06:10:15.577Z,42.60
2022-12-22T06:15:17.010Z,41.78
2022-12-22T06:20:18.454Z,43.33
2022-12-22T06:25:19.862Z,38.42
2022-12-22T06:30:24.522Z,40.00
2022-12-22T06:35:28.983Z,38.28
2022-12-22T06:40:30.518Z,44.75
2022-12-22T06:45:31.941Z,47.35
2022-12-22T06:50:34.527Z,49.13
2022-12-22T06:55:36.329Z,52.88
2022-12-22T07:00:37.807Z,52.88
2022-12-22T07:05:39.234Z,50.47
2022-12-22T07:10:58.827Z,51.78
2022-12-22T07:16:04.638Z,40.33
2022-12-22T07:21:07.574Z,38.38
2022-12-22T07:26:11.092Z,37.20
2022-12-22T07:31:13.576Z,44.47
2022-12-22T07:36:16.286Z,39.25
2022-12-22T07:41:37.349Z,39.22
2022-12-22T07:46:39.263Z,33.63
2022-12-22T07:51:41.595Z,39.63
2022-12-22T07:56:43.848Z,37.30
2022-12-22T08:01:47.191Z,32.88
2022-12-22T08:06:48.714Z,29.10
2022-12-22T08:11:50.343Z,29.88
2022-12-22T08:16:51.980Z,29.77
2022-12-22T08:21:53.621Z,26.88
2022-12-22T08:26:57.858Z,23.33
2022-12-22T08:32:00.287Z,21.33
2022-12-22T08:37:03.115Z,21.27
2022-12-22T08:42:05.537Z,21.23
2022-12-22T08:47:11.490Z,18.48
2022-12-22T08:52:18.749Z,18.70
2022-12-22T08:57:20.746Z,16.05
2022-12-22T09:02:22.425Z,22.23
2022-12-22T09:07:23.958Z,21.50
2022-12-22T09:12:25.442Z,21.77
2022-12-22T09:17:26.968Z,20.17
2022-12-22T09:22:28.995Z,21.30
2022-12-22T09:27:30.588Z,18.88
2022-12-22T09:32:32.606Z,18.58
2022-12-22T09:37:34.004Z,18.65
2022-12-22T09:42:35.731Z,22.52
2022-12-22T09:47:38.943Z,18.05
2022-12-22T09:52:46.537Z,21.48
2022-12-22T09:57:47.989Z,20.92
2022-12-22T10:02:52.118Z,16.35
2022-12-22T10:07:57.556Z,15.40
2022-12-22T10:13:00.354Z,14.18
2022-12-22T10:18:12.630Z,19.73
2022-12-22T10:23:18.401Z,18.02
2022-12-22T10:28:22.911Z,17.00
2022-12-22T10:33:24.263Z,13.43
2022-12-22T10:38:28.611Z,20.42
2022-12-22T10:43:32.339Z,13.15
2022-12-22T10:48:39.948Z,15.40
2022-12-22T10:53:44.257Z,15.05
2022-12-22T10:58:49.839Z,16.75
2022-12-22T11:03:52.481Z,12.45
2022-12-22T11:08:58.175Z,15.82
2022-12-22T11:14:24.114Z,19.50
2022-12-22T11:19:34.490Z,13.25
2022-12-22T11:24:44.908Z,12.32
2022-12-22T11:30:02.833Z,16.25
2022-12-22T11:35:17.934Z,16.27
2022-12-22T11:40:32.006Z,21.02
2022-12-22T11:45:43.331Z,16.20
2022-12-22T11:51:01.919Z,15.45
2022-12-22T11:56:17.443Z,13.10
2022-12-22T12:01:48.720Z,12.10
2022-12-22T12:07:03.530Z,14.20
2022-12-22T12:12:13.168Z,13.23
2022-12-22T12:17:21.466Z,13.13
2022-12-22T12:22:31.710Z,14.48
2022-12-22T12:27:35.905Z,15.73
2022-12-22T12:32:49.682Z,14.65
2022-12-22T12:37:56.044Z,14.43
2022-12-22T12:42:58.185Z,14.32
2022-12-22T12:48:19.530Z,13.93
2022-12-22T12:53:22.008Z,11.82
2022-12-22T12:58:35.600Z,14.55
2022-12-22T13:04:02.656Z,14.75
2022-12-22T13:09:39.725Z,15.18
2022-12-22T13:14:50.198Z,18.83
2022-12-22T13:19:51.830Z,16.58
2022-12-22T13:24:53.708Z,15.45
2022-12-22T13:29:55.317Z,17.35
2022-12-22T13:40:43.671Z,18.52
2022-12-22T13:45:50.098Z,24.08
2022-12-22T13:50:52.573Z,26.73
2022-12-22T13:55:54.581Z,26.15
2022-12-22T14:01:13.636Z,23.35
2022-12-22T14:06:19.627Z,26.70
2022-12-22T14:11:21.335Z,26.17
2022-12-22T14:16:22.842Z,28.40
2022-12-22T14:21:24.323Z,29.50
2022-12-22T14:26:27.932Z,29.75
2022-12-22T14:31:30.137Z,31.63
2022-12-22T14:36:40.771Z,32.28
2022-12-22T14:41:51.262Z,35.60
2022-12-22T14:47:15.872Z,98.72
2022-12-22T14:52:17.309Z,26.00
2022-12-22T14:57:28.882Z,26.08
2022-12-22T15:02:38.769Z,32.20
2022-12-22T15:13:11.005Z,47.80
2022-12-22T15:18:14.382Z,33.60
2022-12-22T15:23:18.890Z,31.58
2022-12-22T15:28:20.370Z,37.00
2022-12-22T15:33:22.067Z,28.08
2022-12-22T15:38:24.230Z,29.88
2022-12-22T15:48:47.101Z,45.20
2022-12-22T15:53:48.710Z,48.97
2022-12-22T15:58:50.176Z,49.92
2022-12-22T16:03:51.743Z,48.22
2022-12-22T16:08:53.468Z,50.47
2022-12-22T16:13:54.952Z,47.15
2022-12-22T16:18:56.384Z,47.45
2022-12-22T16:23:58.736Z,50.85
2022-12-22T16:29:00.307Z,48.78
2022-12-22T16:34:01.661Z,54.50
2022-12-22T16:39:03.131Z,50.60
2022-12-22T16:44:06.777Z,52.97
2022-12-22T16:49:09.185Z,48.88
2022-12-22T16:54:13.281Z,56.03
2022-12-22T16:59:14.888Z,51.70
2022-12-22T17:04:21.746Z,55.22
2022-12-22T17:09:26.073Z,54.92
2022-12-22T17:14:29.216Z,55.15
2022-12-22T17:19:30.698Z,53.58
2022-12-22T17:24:32.173Z,55.92
2022-12-22T17:29:35.215Z,60.22
2022-12-22T17:34:36.695Z,63.25
2022-12-22T17:39:38.849Z,60.60
2022-12-22T17:44:40.519Z,62.47
2022-12-22T17:49:42.629Z,69.63
2022-12-22T17:54:45.205Z,66.60
2022-12-22T17:59:47.294Z,65.63
2022-12-22T18:04:49.334Z,57.85
2022-12-22T18:09:53.772Z,60.40
2022-12-22T18:14:55.250Z,62.47
2022-12-22T18:19:57.220Z,64.95
2022-12-22T18:24:58.682Z,66.88
2022-12-22T18:30:00.161Z,62.10
2022-12-22T18:35:01.607Z,63.28
2022-12-22T18:40:03.400Z,57.13
2022-12-22T18:45:05.055Z,55.38
2022-12-22T18:50:07.360Z,60.65
2022-12-22T18:55:19.138Z,58.38
2022-12-22T19:00:21.876Z,66.03
2022-12-22T19:05:25.106Z,59.38
2022-12-22T19:10:35.576Z,63.03
2022-12-22T19:15:40.664Z,60.08
2022-12-22T19:20:42.099Z,56.90
2022-12-22T19:25:44.263Z,56.58
2022-12-22T19:30:45.752Z,51.00
2022-12-22T19:35:47.200Z,53.05
2022-12-22T19:40:50.462Z,53.78
2022-12-22T19:45:52.594Z,50.17
2022-12-22T19:50:54.544Z,53.53
2022-12-22T19:55:56.634Z,59.80
2022-12-22T20:00:58.704Z,58.17
2022-12-22T20:06:05.129Z,57.85
2022-12-22T20:11:12.247Z,55.03
2022-12-22T20:16:14.826Z,52.35
2022-12-22T20:21:20.481Z,51.17
2022-12-22T20:26:23.471Z,44.45
2022-12-22T20:31:24.966Z,49.08
2022-12-22T20:36:28.838Z,46.13
2022-12-22T20:41:30.423Z,42.78
2022-12-22T20:46:31.987Z,50.17
2022-12-22T20:51:34.063Z,48.08
2022-12-22T20:56:39.167Z,46.75
2022-12-22T21:01:40.965Z,46.10
2022-12-22T21:06:47.375Z,45.40
2022-12-22T21:11:49.113Z,40.47
2022-12-22T21:16:51.629Z,42.75
2022-12-22T21:21:54.084Z,45.20
2022-12-22T21:26:55.583Z,37.80
2022-12-22T21:31:57.515Z,39.40
2022-12-22T21:37:01.613Z,39.72
2022-12-22T21:42:05.786Z,39.78
2022-12-22T21:47:07.228Z,42.53
2022-12-22T21:52:08.614Z,41.55
2022-12-22T21:57:13.811Z,44.25
2022-12-22T22:02:16.424Z,39.97
2022-12-22T22:07:17.907Z,40.80
2022-12-22T22:12:36.155Z,43.03
2022-12-22T22:17:37.626Z,41.50
2022-12-22T22:22:39.171Z,42.13
2022-12-22T22:27:47.684Z,41.42
2022-12-22T22:32:49.661Z,48.67
2022-12-22T22:37:51.750Z,48.67
2022-12-22T22:42:53.259Z,51.17
2022-12-22T22:47:54.904Z,49.72
2022-12-22T22:52:56.337Z,46.33
2022-12-22T22:57:57.746Z,44.38
2022-12-22T23:03:00.472Z,44.05
2022-12-22T23:08:02.303Z,44.50
2022-12-22T23:13:03.748Z,46.05
2022-12-22T23:18:05.313Z,43.60
2022-12-22T23:23:06.944Z,48.47
2022-12-22T23:28:08.419Z,44.17
2022-12-22T23:33:09.989Z,37.67
2022-12-22T23:38:11.513Z,42.72
2022-12-22T23:43:13.183Z,39.85
2022-12-22T23:48:14.980Z,40.08
2022-12-22T23:53:16.814Z,39.63
2022-12-22T23:58:18.312Z,34.60
